createdAt,value
2019-04-01T00:00:02.883Z,6.37
2019-04-01T00:01:43.360Z,6.03
2019-04-01T00:03:19.448Z,5.80
2019-04-01T00:04:55.578Z,5.83
2019-04-01T00:06:31.914Z,6.53
2019-04-01T00:08:08.209Z,5.83
2019-04-01T00:09:44.373Z,5.63
2019-04-01T00:11:20.623Z,6.20
2019-04-01T00:12:56.857Z,6.27
2019-04-01T00:14:33.010Z,5.40
2019-04-01T00:16:09.303Z,7.30
2019-04-01T00:17:45.464Z,6.43
2019-04-01T00:19:21.625Z,7.20
2019-04-01T00:20:58.977Z,6.00
2019-04-01T00:22:35.324Z,6.67
2019-04-01T00:24:11.644Z,7.03
2019-04-01T00:25:47.796Z,6.97
2019-04-01T00:27:25.149Z,6.33
2019-04-01T00:29:00.945Z,6.50
2019-04-01T00:30:37.337Z,5.90
2019-04-01T00:32:13.492Z,5.87
2019-04-01T00:33:49.668Z,5.83
2019-04-01T00:35:26.016Z,5.57
2019-04-01T00:37:02.107Z,5.30
2019-04-01T00:38:38.264Z,6.37
2019-04-01T00:40:14.556Z,5.03
2019-04-01T00:42:04.757Z,5.37
2019-04-01T00:43:54.817Z,5.27
2019-04-01T00:45:32.684Z,6.07
2019-04-01T00:47:08.883Z,6.23
2019-04-01T00:48:45.154Z,6.13
2019-04-01T00:50:21.455Z,5.77
2019-04-01T00:51:58.946Z,6.30
2019-04-01T00:53:35.126Z,6.23
2019-04-01T00:55:11.449Z,5.47
2019-04-01T00:56:47.538Z,5.33
2019-04-01T00:58:23.628Z,4.70
2019-04-01T00:59:59.819Z,5.03
2019-04-01T01:01:37.170Z,5.17
2019-04-01T01:03:13.417Z,5.13
2019-04-01T01:04:49.146Z,4.57
2019-04-01T01:06:25.448Z,4.80
2019-04-01T01:08:01.210Z,4.70
2019-04-01T01:09:37.794Z,4.43
2019-04-01T01:11:14.074Z,3.57
2019-04-01T01:12:50.297Z,4.80
2019-04-01T01:14:26.397Z,4.40
2019-04-01T01:16:02.693Z,4.73
2019-04-01T01:17:38.849Z,3.77
2019-04-01T01:19:15.046Z,4.40
2019-04-01T01:20:51.170Z,4.73
2019-04-01T01:22:27.333Z,4.70
2019-04-01T01:24:03.564Z,3.77
2019-04-01T01:25:39.829Z,4.10
2019-04-01T01:27:15.995Z,3.33
2019-04-01T01:28:52.157Z,4.30
2019-04-01T01:30:28.382Z,4.10
2019-04-01T01:32:04.647Z,4.40
2019-04-01T01:33:40.976Z,3.90
2019-04-01T01:35:17.197Z,3.93
2019-04-01T01:36:53.353Z,4.93
2019-04-01T01:38:29.523Z,5.00
2019-04-01T01:40:06.820Z,3.63
2019-04-01T01:41:43.123Z,4.10
2019-04-01T01:43:19.402Z,3.37
2019-04-01T01:44:55.704Z,3.90
2019-04-01T01:46:31.802Z,4.00
2019-04-01T01:48:07.996Z,4.30
2019-04-01T01:49:44.157Z,3.20
2019-04-01T01:51:20.331Z,3.23
2019-04-01T01:52:56.562Z,3.77
2019-04-01T01:54:32.722Z,3.60
2019-04-01T01:56:08.949Z,3.93
2019-04-01T01:57:45.104Z,3.47
2019-04-01T01:59:21.336Z,3.30
2019-04-01T02:00:57.571Z,4.37
2019-04-01T02:02:33.712Z,3.83
2019-04-01T02:04:10.121Z,3.70
2019-04-01T02:05:46.352Z,3.20
2019-04-01T02:07:22.519Z,3.37
2019-04-01T02:08:58.599Z,3.50
2019-04-01T02:10:35.095Z,2.83
2019-04-01T02:12:11.422Z,2.83
2019-04-01T02:13:47.673Z,3.27
2019-04-01T02:15:23.863Z,3.10
2019-04-01T02:17:00.028Z,2.90
2019-04-01T02:18:36.422Z,2.93
2019-04-01T02:20:12.745Z,3.63
2019-04-01T02:21:48.905Z,3.43
2019-04-01T02:23:25.159Z,3.23
2019-04-01T02:25:01.313Z,2.70
2019-04-01T02:26:37.476Z,3.87
2019-04-01T02:28:13.638Z,4.13
2019-04-01T02:29:49.799Z,4.30
2019-04-01T02:31:25.962Z,4.47
2019-04-01T02:33:02.221Z,3.77
2019-04-01T02:34:38.479Z,3.60
2019-04-01T02:36:14.710Z,3.50
2019-04-01T02:37:50.941Z,3.67
2019-04-01T02:39:27.126Z,3.50
2019-04-01T02:41:03.360Z,3.00
2019-04-01T02:42:39.495Z,2.93
2019-04-01T02:44:15.674Z,3.20
2019-04-01T02:45:51.890Z,2.80
2019-04-01T02:47:28.059Z,2.97
2019-04-01T02:49:04.286Z,3.07
2019-04-01T02:50:40.681Z,2.50
2019-04-01T02:52:16.911Z,2.97
2019-04-01T02:53:53.063Z,2.83
2019-04-01T02:55:29.248Z,2.63
2019-04-01T02:57:05.569Z,3.40
2019-04-01T02:58:41.806Z,3.23
2019-04-01T03:00:18.838Z,3.10
2019-04-01T03:01:54.971Z,2.73
2019-04-01T03:03:31.143Z,3.03
2019-04-01T03:05:08.137Z,3.63
2019-04-01T03:06:44.290Z,3.00
2019-04-01T03:08:20.459Z,3.27
2019-04-01T03:09:56.643Z,3.20
2019-04-01T03:11:32.842Z,3.30
2019-04-01T03:13:09.227Z,3.23
2019-04-01T03:14:45.484Z,3.33
2019-04-01T03:16:21.718Z,3.27
2019-04-01T03:17:57.977Z,3.07
2019-04-01T03:19:34.134Z,2.77
2019-04-01T03:21:10.593Z,2.60
2019-04-01T03:22:46.920Z,2.53
2019-04-01T03:24:24.277Z,3.20
2019-04-01T03:26:00.425Z,2.63
2019-04-01T03:27:36.684Z,2.70
2019-04-01T03:29:12.997Z,3.33
2019-04-01T03:30:49.064Z,3.23
2019-04-01T03:32:25.237Z,3.20
2019-04-01T03:34:01.442Z,3.40
2019-04-01T03:35:37.756Z,2.90
2019-04-01T03:37:14.053Z,3.03
2019-04-01T03:38:50.281Z,3.37
2019-04-01T03:40:26.605Z,2.60
2019-04-01T03:42:02.863Z,3.47
2019-04-01T03:43:39.031Z,2.67
2019-04-01T03:45:16.756Z,2.40
2019-04-01T03:46:52.914Z,2.37
2019-04-01T03:48:29.073Z,2.17
2019-04-01T03:50:06.065Z,2.20
2019-04-01T03:51:42.158Z,2.13
2019-04-01T03:53:18.308Z,2.20
2019-04-01T03:54:54.470Z,2.60
2019-04-01T03:56:30.732Z,2.70
2019-04-01T03:58:07.050Z,2.50
2019-04-01T03:59:43.090Z,2.23
2019-04-01T04:01:19.168Z,2.00
2019-04-01T04:02:55.420Z,2.30
2019-04-01T04:04:31.714Z,3.27
2019-04-01T04:06:07.807Z,3.50
2019-04-01T04:07:44.082Z,3.07
2019-04-01T04:09:20.171Z,3.90
2019-04-01T04:10:56.428Z,4.40
2019-04-01T04:12:32.808Z,3.40
2019-04-01T04:14:09.007Z,2.87
2019-04-01T04:15:45.306Z,3.00
2019-04-01T04:17:22.591Z,3.17
2019-04-01T04:18:58.922Z,3.73
2019-04-01T04:20:35.167Z,3.30
2019-04-01T04:22:11.476Z,3.47
2019-04-01T04:23:47.811Z,2.40
2019-04-01T04:25:24.222Z,2.90
2019-04-01T04:27:00.526Z,3.20
2019-04-01T04:28:36.754Z,3.30
2019-04-01T04:30:18.706Z,3.40
2019-04-01T04:31:55.090Z,3.30
2019-04-01T04:33:31.509Z,3.33
2019-04-01T04:35:07.843Z,4.53
2019-04-01T04:36:45.353Z,3.93
2019-04-01T04:38:21.524Z,3.60
2019-04-01T04:39:57.683Z,4.37
2019-04-01T04:41:33.909Z,4.07
2019-04-01T04:43:10.247Z,3.60
2019-04-01T04:44:46.511Z,3.30
2019-04-01T04:46:22.742Z,3.50
2019-04-01T04:47:58.997Z,3.90
2019-04-01T04:49:35.181Z,3.47
2019-04-01T04:51:11.582Z,3.97
2019-04-01T04:52:47.840Z,4.00
2019-04-01T04:54:24.136Z,4.43
2019-04-01T04:56:00.410Z,4.57
2019-04-01T04:57:36.590Z,3.90
2019-04-01T04:59:12.732Z,4.20
2019-04-01T05:00:48.893Z,4.73
2019-04-01T05:02:25.189Z,5.50
2019-04-01T05:04:01.304Z,5.10
2019-04-01T05:05:37.545Z,4.83
2019-04-01T05:07:14.963Z,5.23
2019-04-01T05:08:51.196Z,4.60
2019-04-01T05:10:27.480Z,4.67
2019-04-01T05:12:03.715Z,5.23
2019-04-01T05:13:41.078Z,4.73
2019-04-01T05:15:17.315Z,5.33
2019-04-01T05:16:53.476Z,5.50
2019-04-01T05:18:29.572Z,4.67
2019-04-01T05:20:06.776Z,4.63
2019-04-01T05:21:44.072Z,5.10
2019-04-01T05:23:20.593Z,4.50
2019-04-01T05:24:58.594Z,5.17
2019-04-01T05:26:36.689Z,5.57
2019-04-01T05:28:15.125Z,4.87
2019-04-01T05:29:54.456Z,4.43
2019-04-01T05:31:33.762Z,3.80
2019-04-01T05:33:14.442Z,4.60
2019-04-01T05:34:54.353Z,4.20
2019-04-01T05:36:31.715Z,4.67
2019-04-01T05:38:08.514Z,5.20
2019-04-01T05:39:46.112Z,4.57
2019-04-01T05:41:22.510Z,4.80
2019-04-01T05:42:58.980Z,5.00
2019-04-01T05:44:35.186Z,5.90
2019-04-01T05:46:11.483Z,4.73
2019-04-01T05:47:50.623Z,4.60
2019-04-01T05:49:27.086Z,4.87
2019-04-01T05:51:03.778Z,4.77
2019-04-01T05:52:40.087Z,4.20
2019-04-01T05:54:16.413Z,5.37
2019-04-01T05:55:52.710Z,4.10
2019-04-01T05:57:29.400Z,4.93
2019-04-01T05:59:05.612Z,5.00
2019-04-01T06:00:43.554Z,5.67
2019-04-01T06:02:20.046Z,4.70
2019-04-01T06:03:57.230Z,5.07
2019-04-01T06:05:33.657Z,3.90
2019-04-01T06:07:10.108Z,4.73
2019-04-01T06:08:46.629Z,5.37
2019-04-01T06:10:23.020Z,5.17
2019-04-01T06:11:59.435Z,5.97
2019-04-01T06:13:36.477Z,5.40
2019-04-01T06:15:12.867Z,5.43
2019-04-01T06:16:49.558Z,5.77
2019-04-01T06:18:25.718Z,6.43
2019-04-01T06:20:02.045Z,6.07
2019-04-01T06:21:38.457Z,5.40
2019-04-01T06:23:16.191Z,6.03
2019-04-01T06:24:52.568Z,5.57
2019-04-01T06:26:28.788Z,6.80
2019-04-01T06:28:05.085Z,5.90
2019-04-01T06:29:41.158Z,5.20
2019-04-01T06:31:17.466Z,5.57
2019-04-01T06:32:54.980Z,6.03
2019-04-01T06:34:31.845Z,5.50
2019-04-01T06:36:08.195Z,5.40
2019-04-01T06:37:44.701Z,5.93
2019-04-01T06:39:21.060Z,6.30
2019-04-01T06:40:57.455Z,5.23
2019-04-01T06:42:33.961Z,5.23
2019-04-01T06:44:10.477Z,4.97
2019-04-01T06:45:46.692Z,4.57
2019-04-01T06:47:22.988Z,5.27
2019-04-01T06:48:59.293Z,5.30
2019-04-01T06:50:35.717Z,5.50
2019-04-01T06:52:12.062Z,4.90
2019-04-01T06:53:48.363Z,5.50
2019-04-01T06:55:24.666Z,5.57
2019-04-01T06:57:02.593Z,5.13
2019-04-01T06:58:39.079Z,4.53
2019-04-01T07:00:15.748Z,5.23
2019-04-01T07:01:52.545Z,4.40
2019-04-01T07:03:29.559Z,5.10
2019-04-01T07:05:07.348Z,5.00
2019-04-01T07:06:45.085Z,5.20
2019-04-01T07:08:21.426Z,4.60
2019-04-01T07:09:57.764Z,4.90
2019-04-01T07:11:34.434Z,5.37
2019-04-01T07:13:11.000Z,4.23
2019-04-01T07:14:47.234Z,4.73
2019-04-01T07:16:23.536Z,4.23
2019-04-01T07:17:59.777Z,4.27
2019-04-01T07:19:36.105Z,3.63
2019-04-01T07:21:12.335Z,3.20
2019-04-01T07:22:48.560Z,3.90
2019-04-01T07:24:24.811Z,3.27
2019-04-01T07:26:01.198Z,3.40
2019-04-01T07:27:37.421Z,2.80
2019-04-01T07:29:13.638Z,1.60
2019-04-01T07:30:49.946Z,3.43
2019-04-01T07:32:26.162Z,3.37
2019-04-01T07:34:02.676Z,3.83
2019-04-01T07:35:38.838Z,2.87
2019-04-01T07:37:15.386Z,2.40
2019-04-01T07:38:51.701Z,2.60
2019-04-01T07:40:28.105Z,2.33
2019-04-01T07:42:05.428Z,3.20
2019-04-01T07:43:41.721Z,2.23
2019-04-01T07:45:17.944Z,1.63
2019-04-01T07:46:54.334Z,1.70
2019-04-01T07:48:30.764Z,3.00
2019-04-01T07:50:07.883Z,2.23
2019-04-01T07:51:44.499Z,2.27
2019-04-01T07:53:20.824Z,1.67
2019-04-01T07:54:57.284Z,1.83
2019-04-01T07:56:34.770Z,2.40
2019-04-01T07:58:11.106Z,2.30
2019-04-01T07:59:47.813Z,2.43
2019-04-01T08:01:24.105Z,2.10
2019-04-01T08:03:00.420Z,1.80
2019-04-01T08:04:36.607Z,2.30
2019-04-01T08:06:13.801Z,2.47
2019-04-01T08:07:49.731Z,1.80
2019-04-01T08:09:26.028Z,2.10
2019-04-01T08:11:02.343Z,2.23
2019-04-01T08:12:57.945Z,2.30
2019-04-01T08:14:34.247Z,1.53
2019-04-01T08:16:10.543Z,2.23
2019-04-01T08:17:46.838Z,2.57
2019-04-01T08:19:23.153Z,1.90
2019-04-01T08:21:00.890Z,1.23
2019-04-01T08:22:37.671Z,1.30
2019-04-01T08:24:13.984Z,1.93
2019-04-01T08:25:50.277Z,1.97
2019-04-01T08:27:26.571Z,1.90
2019-04-01T08:29:03.073Z,1.83
2019-04-01T08:30:39.458Z,1.77
2019-04-01T08:32:15.811Z,1.70
2019-04-01T08:33:52.117Z,1.43
2019-04-01T08:35:30.069Z,1.20
2019-04-01T08:37:06.474Z,1.73
2019-04-01T08:38:44.663Z,1.03
2019-04-01T08:40:20.761Z,1.00
2019-04-01T08:41:57.040Z,0.90
2019-04-01T08:43:45.711Z,1.77
2019-04-01T08:45:22.002Z,2.30
2019-04-01T08:46:58.292Z,2.10
2019-04-01T08:48:35.676Z,2.07
2019-04-01T08:50:12.063Z,2.23
2019-04-01T08:51:48.289Z,1.60
2019-04-01T08:53:24.703Z,2.13
2019-04-01T08:55:00.899Z,2.30
2019-04-01T08:56:38.186Z,2.60
2019-04-01T08:58:15.710Z,2.40
2019-04-01T08:59:56.086Z,2.40
2019-04-01T09:01:35.534Z,2.40
2019-04-01T09:03:08.707Z,2.60
2019-04-01T09:04:45.208Z,1.97
2019-04-01T09:06:21.454Z,2.77
2019-04-01T09:07:58.768Z,2.83
2019-04-01T09:09:35.768Z,2.20
2019-04-01T09:11:12.499Z,2.37
2019-04-01T09:12:48.665Z,2.00
2019-04-01T09:14:25.079Z,2.50
2019-04-01T09:16:02.374Z,2.33
2019-04-01T09:17:40.366Z,1.70
2019-04-01T09:19:16.558Z,1.30
2019-04-01T09:20:52.957Z,1.97
2019-04-01T09:22:29.313Z,2.23
2019-04-01T09:24:05.738Z,1.60
2019-04-01T09:25:43.153Z,1.90
2019-04-01T09:27:19.389Z,1.63
2019-04-01T09:28:55.593Z,1.53
2019-04-01T09:30:31.891Z,1.83
2019-04-01T09:32:08.296Z,2.00
2019-04-01T09:33:44.595Z,1.77
2019-04-01T09:35:20.790Z,1.30
2019-04-01T09:36:57.014Z,1.30
2019-04-01T09:38:33.243Z,1.83
2019-04-01T09:40:10.837Z,1.67
2019-04-01T09:41:47.073Z,1.00
2019-04-01T09:43:23.305Z,0.57
2019-04-01T09:44:59.534Z,1.60
2019-04-01T09:46:35.860Z,0.97
2019-04-01T09:48:12.157Z,1.00
2019-04-01T09:49:48.146Z,1.90
2019-04-01T09:51:24.381Z,2.03
2019-04-01T09:53:00.704Z,1.33
2019-04-01T09:54:36.858Z,1.23
2019-04-01T09:56:13.186Z,1.07
2019-04-01T09:57:49.313Z,1.30
2019-04-01T09:59:25.616Z,1.70
2019-04-01T10:01:01.706Z,1.60
2019-04-01T10:02:38.011Z,1.40
2019-04-01T10:04:14.238Z,1.30
2019-04-01T10:05:50.537Z,1.23
2019-04-01T10:07:26.819Z,1.70
2019-04-01T10:09:02.966Z,1.40
2019-04-01T10:10:39.211Z,1.23
2019-04-01T10:12:15.513Z,1.20
2019-04-01T10:13:52.944Z,1.60
2019-04-01T10:15:29.233Z,1.37
2019-04-01T10:17:05.637Z,1.40
2019-04-01T10:18:41.965Z,1.50
2019-04-01T10:20:18.367Z,1.70
2019-04-01T10:21:54.591Z,1.20
2019-04-01T10:23:30.846Z,1.57
2019-04-01T10:25:07.441Z,1.33
2019-04-01T10:26:43.794Z,1.23
2019-04-01T10:28:20.214Z,1.17
2019-04-01T10:29:57.021Z,1.47
2019-04-01T10:31:33.259Z,1.10
2019-04-01T10:33:09.853Z,1.30
2019-04-01T10:34:46.186Z,1.60
2019-04-01T10:36:22.281Z,1.40
2019-04-01T10:37:58.138Z,1.33
2019-04-01T10:39:34.399Z,1.77
2019-04-01T10:41:10.426Z,1.80
2019-04-01T10:42:46.660Z,1.27
2019-04-01T10:44:22.963Z,1.17
2019-04-01T10:45:59.229Z,1.60
2019-04-01T10:47:36.731Z,1.43
2019-04-01T10:49:13.059Z,1.10
2019-04-01T10:50:49.507Z,1.60
2019-04-01T10:52:25.747Z,1.43
2019-04-01T10:54:02.109Z,1.40
2019-04-01T10:55:38.514Z,1.10
2019-04-01T10:57:15.995Z,1.33
2019-04-01T10:58:52.462Z,1.10
2019-04-01T11:00:28.838Z,1.40
2019-04-01T11:02:05.303Z,1.70
2019-04-01T11:03:41.592Z,1.07
2019-04-01T11:05:18.018Z,1.40
2019-04-01T11:06:54.439Z,1.50
2019-04-01T11:08:31.873Z,1.53
2019-04-01T11:10:12.012Z,1.00
2019-04-01T11:11:48.380Z,1.60
2019-04-01T11:13:24.603Z,1.33
2019-04-01T11:15:02.024Z,1.87
2019-04-01T11:16:38.285Z,1.40
2019-04-01T11:18:14.520Z,1.70
2019-04-01T11:19:50.381Z,1.67
2019-04-01T11:21:26.656Z,1.17
2019-04-01T11:23:04.169Z,1.50
2019-04-01T11:24:40.830Z,1.40
2019-04-01T11:26:17.058Z,1.77
2019-04-01T11:27:53.384Z,1.60
2019-04-01T11:29:29.670Z,1.23
2019-04-01T11:31:05.905Z,1.80
2019-04-01T11:32:42.332Z,1.50
2019-04-01T11:34:19.316Z,1.80
2019-04-01T11:35:55.690Z,1.77
2019-04-01T11:37:32.024Z,1.43
2019-04-01T11:39:08.890Z,1.50
2019-04-01T11:40:45.211Z,1.77
2019-04-01T11:42:22.956Z,1.30
2019-04-01T11:43:59.543Z,1.60
2019-04-01T11:45:35.802Z,1.47
2019-04-01T11:47:12.152Z,1.37
2019-04-01T11:48:48.423Z,1.80
2019-04-01T11:50:25.297Z,1.90
2019-04-01T11:52:01.871Z,1.50
2019-04-01T11:53:38.041Z,1.87
2019-04-01T11:55:14.344Z,1.80
2019-04-01T11:56:50.528Z,1.60
2019-04-01T11:58:26.760Z,1.53
2019-04-01T12:00:03.527Z,1.50
2019-04-01T12:01:39.859Z,2.00
2019-04-01T12:03:15.927Z,1.87
2019-04-01T12:04:52.767Z,1.70
2019-04-01T12:06:29.284Z,2.03
2019-04-01T12:08:05.589Z,1.67
2019-04-01T12:09:41.824Z,1.63
2019-04-01T12:11:18.083Z,2.00
2019-04-01T12:12:54.182Z,1.70
2019-04-01T12:14:30.516Z,1.87
2019-04-01T12:16:06.803Z,1.70
2019-04-01T12:17:43.293Z,1.80
2019-04-01T12:19:19.695Z,1.97
2019-04-01T12:20:56.096Z,1.60
2019-04-01T12:22:32.427Z,2.27
2019-04-01T12:24:09.441Z,2.03
2019-04-01T12:25:45.794Z,1.83
2019-04-01T12:27:22.125Z,1.33
2019-04-01T12:28:58.283Z,1.97
2019-04-01T12:30:34.592Z,2.27
2019-04-01T12:32:11.072Z,2.17
2019-04-01T12:33:48.002Z,1.70
2019-04-01T12:35:24.229Z,1.70
2019-04-01T12:37:00.386Z,1.83
2019-04-01T12:38:36.786Z,1.90
2019-04-01T12:40:13.993Z,1.80
2019-04-01T12:41:50.592Z,1.80
2019-04-01T12:43:26.993Z,2.20
2019-04-01T12:45:03.290Z,1.80
2019-04-01T12:46:39.699Z,3.97
2019-04-01T12:48:16.004Z,2.63
2019-04-01T12:49:52.166Z,1.93
2019-04-01T12:51:28.366Z,1.50
2019-04-01T12:53:04.746Z,1.80
2019-04-01T12:54:41.046Z,1.73
2019-04-01T12:56:17.454Z,3.33
2019-04-01T12:57:53.685Z,1.03
2019-04-01T12:59:29.840Z,1.87
2019-04-01T13:01:06.330Z,2.40
2019-04-01T13:02:42.516Z,1.33
2019-04-01T13:04:18.668Z,2.60
2019-04-01T13:05:54.826Z,7.37
2019-04-01T13:07:31.086Z,1.97
2019-04-01T13:09:08.790Z,1.80
2019-04-01T13:10:44.954Z,2.53
2019-04-01T13:12:21.364Z,2.30
2019-04-01T13:13:57.082Z,2.33
2019-04-01T13:15:33.382Z,2.53
2019-04-01T13:17:09.712Z,2.23
2019-04-01T13:18:47.284Z,2.40
2019-04-01T13:20:37.034Z,1.53
2019-04-01T13:22:02.768Z,1.73
2019-04-01T13:23:39.027Z,1.97
2019-04-01T13:25:15.324Z,2.20
2019-04-01T13:26:51.438Z,1.50
2019-04-01T13:28:27.807Z,1.50
2019-04-01T13:30:05.553Z,1.93
2019-04-01T13:31:41.748Z,2.40
2019-04-01T13:33:17.849Z,3.27
2019-04-01T13:34:54.414Z,2.83
2019-04-01T13:36:30.580Z,1.97
2019-04-01T13:38:06.955Z,1.80
2019-04-01T13:39:43.106Z,2.10
2019-04-01T13:41:19.340Z,3.30
2019-04-01T13:42:55.534Z,2.63
2019-04-01T13:44:37.279Z,1.90
2019-04-01T13:46:11.438Z,1.70
2019-04-01T13:47:48.723Z,1.20
2019-04-01T13:49:25.853Z,1.13
2019-04-01T13:51:02.104Z,1.80
2019-04-01T13:52:38.336Z,1.83
2019-04-01T13:54:14.564Z,2.00
2019-04-01T13:55:50.444Z,1.80
2019-04-01T13:57:26.858Z,2.00
2019-04-01T13:59:02.806Z,2.07
2019-04-01T14:00:40.226Z,2.30
2019-04-01T14:02:16.353Z,1.90
2019-04-01T14:03:52.517Z,1.77
2019-04-01T14:05:28.780Z,2.30
2019-04-01T14:07:05.087Z,1.63
2019-04-01T14:08:41.323Z,1.40
2019-04-01T14:10:17.516Z,1.80
2019-04-01T14:11:53.810Z,1.97
2019-04-01T14:13:31.498Z,1.47
2019-04-01T14:15:11.512Z,2.10
2019-04-01T14:16:47.660Z,2.77
2019-04-01T14:18:23.819Z,2.80
2019-04-01T14:19:59.968Z,2.07
2019-04-01T14:21:36.219Z,2.40
2019-04-01T14:23:12.456Z,2.40
2019-04-01T14:24:48.715Z,3.00
2019-04-01T14:26:24.791Z,1.93
2019-04-01T14:28:00.783Z,3.57
2019-04-01T14:29:37.041Z,3.40
2019-04-01T14:31:13.405Z,2.70
2019-04-01T14:32:49.621Z,3.07
2019-04-01T14:34:25.847Z,2.27
2019-04-01T14:36:01.995Z,1.93
2019-04-01T14:37:39.637Z,1.73
2019-04-01T14:39:15.974Z,2.07
2019-04-01T14:40:51.823Z,2.37
2019-04-01T14:42:28.037Z,2.90
2019-04-01T14:44:04.428Z,2.37
2019-04-01T14:45:41.139Z,2.70
2019-04-01T14:47:16.908Z,1.70
2019-04-01T14:48:53.066Z,1.03
2019-04-01T14:50:29.370Z,1.60
2019-04-01T14:52:05.686Z,1.63
2019-04-01T14:53:41.920Z,2.27
2019-04-01T14:55:18.158Z,2.50
2019-04-01T14:56:54.695Z,1.83
2019-04-01T14:58:30.956Z,1.77
2019-04-01T15:00:13.456Z,2.60
2019-04-01T15:01:49.841Z,2.80
2019-04-01T15:03:26.085Z,2.10
2019-04-01T15:05:04.757Z,1.20
2019-04-01T15:06:39.945Z,1.23
2019-04-01T15:08:19.321Z,1.40
2019-04-01T15:09:54.293Z,3.33
2019-04-01T15:11:30.447Z,1.50
2019-04-01T15:13:06.667Z,2.53
2019-04-01T15:14:42.976Z,3.77
2019-04-01T15:16:19.279Z,1.53
2019-04-01T15:17:55.348Z,1.97
2019-04-01T15:19:31.672Z,4.13
2019-04-01T15:21:11.434Z,1.43
2019-04-01T15:22:47.470Z,2.07
2019-04-01T15:24:23.685Z,3.87
2019-04-01T15:25:59.985Z,5.47
2019-04-01T15:27:36.292Z,2.03
2019-04-01T15:29:12.478Z,1.67
2019-04-01T15:30:48.727Z,2.57
2019-04-01T15:32:25.021Z,1.60
2019-04-01T15:34:01.176Z,3.93
2019-04-01T15:35:39.061Z,4.63
2019-04-01T15:37:15.384Z,3.03
2019-04-01T15:38:51.500Z,2.40
2019-04-01T15:40:27.794Z,2.67
2019-04-01T15:42:04.114Z,3.40
2019-04-01T15:43:41.061Z,2.33
2019-04-01T15:45:17.524Z,2.13
2019-04-01T15:46:53.302Z,2.57
2019-04-01T15:48:29.629Z,2.33
2019-04-01T15:50:07.334Z,4.47
2019-04-01T15:51:43.576Z,2.50
2019-04-01T15:53:23.458Z,2.53
2019-04-01T15:54:58.842Z,2.03
2019-04-01T15:56:35.189Z,1.27
2019-04-01T15:58:11.763Z,2.37
2019-04-01T15:59:47.921Z,2.93
2019-04-01T16:01:24.212Z,3.50
2019-04-01T16:03:00.516Z,2.90
2019-04-01T16:04:37.226Z,2.80
2019-04-01T16:06:13.604Z,2.67
2019-04-01T16:07:50.011Z,2.03
2019-04-01T16:09:27.420Z,2.33
2019-04-01T16:11:03.668Z,2.70
2019-04-01T16:12:39.826Z,2.83
2019-04-01T16:14:19.093Z,4.67
2019-04-01T16:15:54.030Z,2.03
2019-04-01T16:17:30.177Z,3.50
2019-04-01T16:19:06.474Z,3.30
2019-04-01T16:20:42.541Z,3.07
2019-04-01T16:22:18.632Z,9.50
2019-04-01T16:23:54.891Z,6.70
2019-04-01T16:25:31.174Z,7.73
2019-04-01T16:27:08.661Z,4.30
2019-04-01T16:28:44.947Z,6.47
2019-04-01T16:30:21.343Z,11.40
2019-04-01T16:31:57.844Z,7.07
2019-04-01T16:33:34.318Z,8.37
2019-04-01T16:35:10.982Z,8.17
2019-04-01T16:36:47.133Z,7.57
2019-04-01T16:38:23.369Z,5.23
2019-04-01T16:39:59.460Z,5.27
2019-04-01T16:41:36.553Z,5.17
2019-04-01T16:43:12.790Z,5.83
2019-04-01T16:44:49.206Z,6.07
2019-04-01T16:46:25.435Z,6.13
2019-04-01T16:48:01.660Z,5.00
2019-04-01T16:49:37.814Z,6.97
2019-04-01T16:51:14.137Z,5.80
2019-04-01T16:52:51.365Z,4.33
2019-04-01T16:54:27.512Z,4.30
2019-04-01T16:56:04.331Z,6.37
2019-04-01T16:57:41.436Z,4.57
2019-04-01T16:59:17.832Z,6.37
2019-04-01T17:00:55.315Z,4.17
2019-04-01T17:02:33.821Z,7.63
2019-04-01T17:04:11.305Z,4.83
2019-04-01T17:05:47.601Z,9.57
2019-04-01T17:07:23.902Z,16.03
2019-04-01T17:09:00.207Z,18.47
2019-04-01T17:10:36.615Z,21.47
2019-04-01T17:12:14.113Z,11.23
2019-04-01T17:13:50.337Z,10.40
2019-04-01T17:15:26.759Z,7.23
2019-04-01T17:17:02.973Z,8.17
2019-04-01T17:18:39.876Z,21.17
2019-04-01T17:20:16.185Z,12.40
2019-04-01T17:21:52.347Z,7.67
2019-04-01T17:23:30.520Z,21.20
2019-04-01T17:25:08.271Z,13.97
2019-04-01T17:27:03.692Z,13.67
2019-04-01T17:28:39.846Z,12.73
2019-04-01T17:30:16.559Z,16.23
2019-04-01T17:31:54.426Z,22.80
2019-04-01T17:33:30.701Z,25.33
2019-04-01T17:35:07.429Z,22.03
2019-04-01T17:36:43.868Z,22.30
2019-04-01T17:38:20.207Z,10.20
2019-04-01T17:39:56.539Z,13.20
2019-04-01T17:41:34.430Z,10.90
2019-04-01T17:43:13.484Z,9.63
2019-04-01T17:45:00.394Z,7.83
2019-04-01T17:46:37.383Z,10.43
2019-04-01T17:48:13.669Z,8.60
2019-04-01T17:49:50.004Z,14.70
2019-04-01T17:51:26.607Z,7.27
2019-04-01T17:53:03.131Z,6.90
2019-04-01T17:54:40.085Z,10.20
2019-04-01T17:56:17.911Z,12.50
2019-04-01T17:57:54.380Z,15.20
2019-04-01T17:59:30.546Z,13.47
2019-04-01T18:01:06.952Z,10.93
2019-04-01T18:02:44.434Z,12.20
2019-04-01T18:04:21.444Z,12.40
2019-04-01T18:05:57.672Z,12.80
2019-04-01T18:07:33.935Z,16.40
2019-04-01T18:09:10.358Z,18.00
2019-04-01T18:10:48.746Z,13.30
2019-04-01T18:12:24.341Z,9.50
2019-04-01T18:14:02.856Z,13.17
2019-04-01T18:15:38.579Z,11.00
2019-04-01T18:17:18.344Z,10.43
2019-04-01T18:18:53.032Z,12.53
2019-04-01T18:20:30.524Z,10.40
2019-04-01T18:22:09.861Z,11.17
2019-04-01T18:23:44.558Z,9.47
2019-04-01T18:25:21.196Z,11.73
2019-04-01T18:26:57.728Z,11.33
2019-04-01T18:28:35.177Z,15.53
2019-04-01T18:30:12.631Z,20.63
2019-04-01T18:31:48.558Z,14.00
2019-04-01T18:33:24.939Z,16.77
2019-04-01T18:35:04.061Z,21.87
2019-04-01T18:36:39.297Z,15.93
2019-04-01T18:38:17.060Z,16.43
2019-04-01T18:39:56.907Z,15.27
2019-04-01T18:41:31.565Z,15.70
2019-04-01T18:43:07.819Z,13.97
2019-04-01T18:44:44.083Z,13.83
2019-04-01T18:46:21.159Z,8.73
2019-04-01T18:47:58.238Z,12.43
2019-04-01T18:49:34.503Z,13.93
2019-04-01T18:51:11.752Z,13.97
2019-04-01T18:52:48.148Z,10.17
2019-04-01T18:54:24.302Z,9.87
2019-04-01T18:56:00.821Z,9.17
2019-04-01T18:57:37.241Z,11.00
2019-04-01T18:59:13.540Z,14.17
2019-04-01T19:00:51.059Z,13.87
2019-04-01T19:02:27.991Z,11.03
2019-04-01T19:04:04.226Z,10.13
2019-04-01T19:05:41.551Z,11.67
2019-04-01T19:07:17.976Z,11.17
2019-04-01T19:08:54.133Z,8.93
2019-04-01T19:10:30.637Z,10.27
2019-04-01T19:12:07.299Z,12.13
2019-04-01T19:13:43.757Z,8.80
2019-04-01T19:15:20.259Z,8.47
2019-04-01T19:16:56.441Z,9.00
2019-04-01T19:18:32.774Z,8.80
2019-04-01T19:20:11.436Z,7.27
2019-04-01T19:21:49.220Z,7.20
2019-04-01T19:23:25.812Z,8.10
2019-04-01T19:25:01.995Z,8.60
2019-04-01T19:26:38.283Z,9.20
2019-04-01T19:28:14.437Z,7.60
2019-04-01T19:29:50.676Z,6.50
2019-04-01T19:31:26.899Z,9.23
2019-04-01T19:33:06.438Z,5.97
2019-04-01T19:34:41.301Z,8.77
2019-04-01T19:36:17.591Z,7.13
2019-04-01T19:37:54.025Z,6.20
2019-04-01T19:39:30.889Z,6.93
2019-04-01T19:41:07.152Z,6.57
2019-04-01T19:42:43.377Z,6.17
2019-04-01T19:44:19.704Z,5.53
2019-04-01T19:45:56.033Z,9.70
2019-04-01T19:47:32.446Z,10.47
2019-04-01T19:49:08.678Z,7.97
2019-04-01T19:50:45.007Z,4.57
2019-04-01T19:52:21.262Z,8.23
2019-04-01T19:53:57.665Z,5.80
2019-04-01T19:55:34.365Z,5.47
2019-04-01T19:57:11.039Z,5.03
2019-04-01T19:58:47.450Z,5.07
2019-04-01T20:00:27.991Z,5.27
2019-04-01T20:02:03.053Z,5.97
2019-04-01T20:03:39.462Z,5.83
2019-04-01T20:05:15.740Z,6.20
2019-04-01T20:06:52.041Z,4.73
2019-04-01T20:08:28.422Z,6.00
2019-04-01T20:10:05.757Z,4.13
2019-04-01T20:11:43.070Z,3.67
2019-04-01T20:13:20.237Z,4.80
2019-04-01T20:14:58.800Z,7.43
2019-04-01T20:16:34.156Z,7.60
2019-04-01T20:18:10.477Z,5.43
2019-04-01T20:19:46.709Z,3.53
2019-04-01T20:21:22.971Z,6.67
2019-04-01T20:22:59.281Z,5.93
2019-04-01T20:24:35.578Z,5.10
2019-04-01T20:26:11.908Z,4.07
2019-04-01T20:27:48.330Z,5.37
2019-04-01T20:29:24.950Z,6.53
2019-04-01T20:31:01.186Z,5.27
2019-04-01T20:32:37.516Z,7.13
2019-04-01T20:34:19.474Z,4.53
2019-04-01T20:35:51.787Z,4.67
2019-04-01T20:37:29.043Z,5.17
2019-04-01T20:39:08.561Z,5.80
2019-04-01T20:40:45.094Z,4.87
2019-04-01T20:42:21.321Z,3.90
2019-04-01T20:43:57.409Z,4.23
2019-04-01T20:45:33.740Z,3.87
2019-04-01T20:47:09.958Z,4.93
2019-04-01T20:48:46.267Z,5.40
2019-04-01T20:50:22.768Z,4.23
2019-04-01T20:52:00.226Z,4.33
2019-04-01T20:53:36.385Z,6.00
2019-04-01T20:55:13.460Z,4.50
2019-04-01T20:56:50.075Z,5.13
2019-04-01T20:58:26.237Z,3.83
2019-04-01T21:00:02.398Z,2.60
2019-04-01T21:01:38.827Z,3.40
2019-04-01T21:03:14.978Z,3.37
2019-04-01T21:04:51.353Z,4.57
2019-04-01T21:06:27.658Z,3.77
2019-04-01T21:08:04.083Z,3.57
2019-04-01T21:09:40.482Z,5.47
2019-04-01T21:11:16.888Z,3.93
2019-04-01T21:12:53.244Z,3.73
2019-04-01T21:14:29.416Z,3.53
2019-04-01T21:16:05.696Z,3.60
2019-04-01T21:17:43.113Z,4.13
2019-04-01T21:19:19.283Z,3.33
2019-04-01T21:20:55.718Z,3.07
2019-04-01T21:22:31.876Z,2.70